Time;durP1;ratioP1;P1;durP2;ratioP2;P2;SDS_P1;SDS_P2;PMS_P1;PMS_P2;Temp;Humidity;BMP_temperature;BMP_pressure;BME280_temperature;BME280_humidity;BME280_pressure;Samples;Min_cycle;Max_cycle;Signal;HPM_P1;HPM_P2
2022/01/28 00:00:51;;;;;;;13.30;7.10;;;;;;;3.71;88.36;99247.99;88524;1268;98122;-66
2022/01/28 00:03:05;;;;;;;10.80;6.50;;;;;;;3.72;88.29;99246.09;88540;1268;88121;-67
2022/01/28 00:05:19;;;;;;;11.60;6.60;;;;;;;3.75;88.43;99245.73;88507;1268;94005;-66
2022/01/28 00:07:28;;;;;;;15.10;7.20;;;;;;;3.82;88.21;99243.91;88498;1268;80197;-65
2022/01/28 00:09:37;;;;;;;11.30;6.30;;;;;;;3.83;88.24;99251.42;88541;1268;80002;-67
2022/01/28 00:11:46;;;;;;;11.30;6.70;;;;;;;3.85;88.25;99253.07;88509;1268;98539;-64
2022/01/28 00:14:08;;;;;;;12.00;6.50;;;;;;;3.87;88.07;99250.43;88526;1268;89492;-65
2022/01/28 00:19:08;;;;;;;11.50;6.70;;;;;;;3.90;88.12;99247.73;88233;1274;81813;-72
2022/01/28 00:36:43;;;;;;;9.90;5.80;;;;;;;3.91;87.54;99234.40;88331;1268;99415;-72
2022/01/28 00:38:52;;;;;;;8.30;5.50;;;;;;;3.87;87.34;99236.52;88529;1268;88905;-72
2022/01/28 00:41:06;;;;;;;11.90;6.20;;;;;;;3.80;87.26;99234.63;88530;1268;94835;-66
2022/01/28 00:43:15;;;;;;;10.00;5.70;;;;;;;3.79;87.33;99234.10;88514;1268;80948;-66
2022/01/28 00:45:25;;;;;;;7.90;4.80;;;;;;;3.78;87.36;99232.73;88566;1267;81491;-67
2022/01/28 00:47:37;;;;;;;11.10;5.00;;;;;;;3.76;87.28;99228.70;88573;1268;99314;-66
2022/01/28 00:49:50;;;;;;;13.80;5.80;;;;;;;3.74;87.28;99225.74;88415;1270;88033;-66
2022/01/28 00:52:00;;;;;;;8.20;4.90;;;;;;;3.73;87.09;99227.16;88499;1267;94805;-65
2022/01/28 00:54:10;;;;;;;8.60;4.30;;;;;;;3.69;87.24;99222.98;88507;1268;79507;-65
2022/01/28 00:56:20;;;;;;;10.30;5.10;;;;;;;3.67;87.04;99230.33;88540;1268;82053;-73
2022/01/28 00:58:29;;;;;;;9.80;4.10;;;;;;;3.66;87.19;99226.33;88534;1268;99123;-73
2022/01/28 01:00:39;;;;;;;8.60;3.80;;;;;;;3.64;87.22;99227.46;88556;1268;87781;-71
2022/01/28 01:02:49;;;;;;;10.90;4.00;;;;;;;3.65;86.89;99227.27;88517;1268;93403;-72
2022/01/28 01:04:58;;;;;;;10.30;3.70;;;;;;;3.63;86.71;99221.49;88524;1268;78735;-73
2022/01/28 01:07:08;;;;;;;7.70;3.40;;;;;;;3.60;86.79;99216.10;88559;1268;83055;-72
2022/01/28 01:09:17;;;;;;;9.90;3.30;;;;;;;3.55;86.82;99209.52;88543;1268;99032;-71
2022/01/28 01:11:27;;;;;;;8.50;3.30;;;;;;;3.55;86.86;99207.58;88539;1268;87905;-67
2022/01/28 01:13:38;;;;;;;6.80;3.30;;;;;;;3.56;86.73;99200.20;88512;1268;95328;-66
2022/01/28 01:15:55;;;;;;;8.50;3.70;;;;;;;3.56;86.66;99196.80;88555;1268;80189;-66
2022/01/28 01:18:11;;;;;;;8.50;3.40;;;;;;;3.54;86.71;99195.97;88535;1268;82104;-65
2022/01/28 01:20:39;;;;;;;7.60;3.60;;;;;;;3.54;86.69;99195.20;88514;1268;99178;-70
2022/01/28 01:23:04;;;;;;;5.00;2.80;;;;;;;3.51;86.69;99187.75;88548;1268;89345;-72
2022/01/28 01:25:23;;;;;;;8.00;3.30;;;;;;;3.51;86.49;99180.66;88508;1268;95033;-73
2022/01/28 01:27:35;;;;;;;6.30;2.70;;;;;;;3.49;86.49;99175.20;88530;1268;80091;-73
2022/01/28 01:29:46;;;;;;;8.80;3.00;;;;;;;3.48;86.51;99167.47;88530;1268;80869;-72
2022/01/28 01:32:03;;;;;;;5.80;2.70;;;;;;;3.46;86.23;99165.87;88565;1268;99790;-72
2022/01/28 01:34:16;;;;;;;7.20;2.70;;;;;;;3.43;86.39;99160.72;88496;1268;88079;-73
2022/01/28 01:36:25;;;;;;;6.40;2.60;;;;;;;3.42;86.25;99159.05;88522;1268;95377;-70
2022/01/28 01:38:38;;;;;;;9.30;2.70;;;;;;;3.42;86.31;99150.39;88495;1268;78740;-72
2022/01/28 01:40:52;;;;;;;8.00;2.20;;;;;;;3.44;85.77;99142.73;88537;1268;82907;-66
2022/01/28 01:43:09;;;;;;;;;;;;;;;3.44;86.34;99140.02;88538;1268;100112;-65
2022/01/28 01:52:41;;;;;;;6.20;2.00;;;;;;;3.46;85.95;99126.44;88522;1268;81904;-72
2022/01/28 01:54:52;;;;;;;5.20;1.80;;;;;;;3.48;86.07;99126.20;88515;1267;98400;-72
2022/01/28 01:57:02;;;;;;;7.10;2.30;;;;;;;3.48;85.90;99122.12;88453;1271;88346;-73
2022/01/28 01:59:12;;;;;;;5.70;1.90;;;;;;;3.49;86.15;99119.10;88519;1268;94015;-71
2022/01/28 02:01:21;;;;;;;5.20;2.20;;;;;;;3.52;85.98;99116.09;88519;1268;79199;-64
2022/01/28 02:03:31;;;;;;;6.80;2.60;;;;;;;3.55;85.44;99113.64;88544;1268;83213;-66
2022/01/28 02:05:40;;;;;;;7.20;2.00;;;;;;;3.59;85.37;99100.90;88551;1268;99577;-64
2022/01/28 02:07:51;;;;;;;7.00;2.40;;;;;;;3.62;85.10;99103.17;88499;1268;88340;-66
2022/01/28 02:10:00;;;;;;;5.60;2.50;;;;;;;3.63;85.08;99096.29;88528;1268;95020;-66
2022/01/28 02:12:14;;;;;;;7.20;2.70;;;;;;;3.63;85.01;99093.00;88525;1268;76971;-64
2022/01/28 02:14:21;;;;;;;;;;;;;;;3.64;85.06;99084.81;88551;1268;83196;-64
2022/01/28 02:16:34;;;;;;;6.40;2.60;;;;;;;3.64;85.12;99087.98;88501;1268;100474;-65
2022/01/28 02:18:44;;;;;;;5.30;2.60;;;;;;;3.63;84.79;99081.77;88533;1268;88053;-66
2022/01/28 02:20:59;;;;;;;5.20;2.50;;;;;;;3.59;84.52;99074.33;88519;1268;93889;-71
2022/01/28 02:23:11;;;;;;;7.70;2.60;;;;;;;3.56;84.96;99073.91;88508;1268;80438;-72
2022/01/28 02:25:31;;;;;;;8.40;3.30;;;;;;;3.55;84.77;99072.55;88516;1268;80267;-73
2022/01/28 02:27:41;;;;;;;10.80;3.10;;;;;;;3.53;85.12;99064.89;88546;1268;97633;-66
2022/01/28 02:29:55;;;;;;;7.50;2.80;;;;;;;3.57;85.15;99067.52;88470;1268;89370;-66
2022/01/28 02:32:07;;;;;;;8.00;3.80;;;;;;;3.58;85.15;99068.59;88544;1268;92495;-65
2022/01/28 02:34:17;;;;;;;6.70;3.40;;;;;;;3.57;85.17;99066.44;88528;1268;79025;-66
2022/01/28 02:36:27;;;;;;;5.80;2.20;;;;;;;3.58;85.16;99055.25;88502;1268;80819;-72
2022/01/28 02:38:37;;;;;;;7.20;2.50;;;;;;;3.58;85.28;99060.21;88517;1268;99822;-72
2022/01/28 02:40:50;;;;;;;7.40;2.30;;;;;;;3.58;85.66;99061.65;88522;1268;87923;-66
2022/01/28 02:43:02;;;;;;;;;;;;;;;3.59;85.66;99058.70;88499;1268;94506;-66
2022/01/28 02:45:23;;;;;;;6.10;2.40;;;;;;;3.56;85.78;99061.67;88473;1268;80528;-66
2022/01/28 02:47:39;;;;;;;6.80;2.00;;;;;;;3.53;85.98;99054.39;88520;1268;83605;-65
2022/01/28 02:49:48;;;;;;;7.20;2.30;;;;;;;3.52;86.10;99060.06;88452;1268;97972;-65
2022/01/28 02:51:58;;;;;;;4.90;2.40;;;;;;;3.48;86.15;99060.02;88488;1271;89174;-72
2022/01/28 02:54:16;;;;;;;5.90;3.10;;;;;;;3.43;86.25;99054.15;88453;1271;96481;-74
2022/01/28 02:56:35;;;;;;;6.10;1.90;;;;;;;3.40;86.01;99057.00;88401;1271;78779;-75
2022/01/28 02:58:48;;;;;;;4.70;1.70;;;;;;;3.39;86.37;99049.63;88427;1271;81308;-75
2022/01/28 03:01:01;;;;;;;3.80;1.50;;;;;;;3.38;86.20;99049.73;88292;1274;100199;-67
2022/01/28 03:03:10;;;;;;;4.50;1.40;;;;;;;3.37;86.28;99047.90;88296;1274;90483;-67
2022/01/28 03:05:34;;;;;;;5.40;1.70;;;;;;;3.35;86.41;99044.09;88360;1271;95541;-66
2022/01/28 03:07:44;;;;;;;9.30;2.40;;;;;;;3.33;86.37;99045.73;88366;1271;79787;-65
2022/01/28 03:10:25;;;;;;;4.70;1.60;;;;;;;3.32;86.58;99043.05;88404;1271;80314;-67
2022/01/28 03:12:37;;;;;;;8.00;1.90;;;;;;;3.27;86.71;99041.60;88454;1271;100432;-76
2022/01/28 03:15:01;;;;;;;7.00;1.60;;;;;;;3.25;86.70;99037.55;88437;1271;88791;-77
2022/01/28 03:17:16;;;;;;;3.90;1.50;;;;;;;3.26;86.78;99039.48;87961;1271;584464;-67
2022/01/28 03:19:29;;;;;;;6.20;1.60;;;;;;;3.23;87.01;99036.23;88437;1271;79099;-64
2022/01/28 03:21:42;;;;;;;7.20;2.40;;;;;;;3.22;86.90;99032.30;88397;1271;81608;-64
2022/01/28 03:23:52;;;;;;;9.20;1.60;;;;;;;3.21;87.15;99034.16;88460;1271;99629;-66
2022/01/28 03:26:01;;;;;;;6.30;1.90;;;;;;;3.21;87.07;99029.00;88393;1271;86417;-70
2022/01/28 03:28:11;;;;;;;7.10;2.00;;;;;;;3.18;86.96;99032.02;88353;1271;94508;-68
2022/01/28 03:30:21;;;;;;;6.00;1.80;;;;;;;3.16;86.94;99029.20;88387;1271;81609;-70
2022/01/28 03:32:31;;;;;;;7.10;2.40;;;;;;;3.17;87.01;99032.53;88423;1271;80994;-75
2022/01/28 03:34:40;;;;;;;6.50;1.60;;;;;;;3.19;87.36;99038.64;88447;1271;98841;-76
2022/01/28 03:36:53;;;;;;;5.00;1.80;;;;;;;3.20;87.17;99037.34;88439;1271;89390;-66
2022/01/28 03:39:02;;;;;;;7.30;2.00;;;;;;;3.21;87.19;99039.34;88444;1271;93978;-65
2022/01/28 03:41:17;;;;;;;5.20;1.80;;;;;;;3.18;87.44;99040.92;88427;1271;79273;-75
2022/01/28 03:43:26;;;;;;;5.60;1.70;;;;;;;3.16;87.31;99039.41;88384;1271;83265;-76
2022/01/28 03:45:36;;;;;;;6.20;2.50;;;;;;;3.16;87.32;99033.42;88422;1271;97385;-68
2022/01/28 03:47:45;;;;;;;7.20;2.20;;;;;;;3.13;87.27;99032.42;88382;1271;88605;-67
2022/01/28 03:49:57;;;;;;;6.50;1.80;;;;;;;3.15;87.53;99031.11;88367;1271;94417;-68
2022/01/28 03:52:08;;;;;;;5.50;1.90;;;;;;;3.15;87.64;99037.02;88387;1271;79823;-74
2022/01/28 03:54:17;;;;;;;4.20;1.40;;;;;;;3.18;87.76;99022.90;88444;1271;81632;-75
2022/01/28 03:56:29;;;;;;;5.20;1.50;;;;;;;3.19;87.74;99031.02;88423;1271;99610;-66
2022/01/28 03:58:38;;;;;;;5.50;1.80;;;;;;;3.22;87.81;99031.31;88458;1271;89084;-65
2022/01/28 04:00:51;;;;;;;6.30;2.30;;;;;;;3.24;87.68;99032.09;88451;1271;94826;-76
2022/01/28 04:03:09;;;;;;;4.80;1.30;;;;;;;3.27;87.65;99029.08;88431;1271;79415;-73
2022/01/28 04:06:11;;;;;;;3.90;1.70;;;;;;;3.26;87.73;99029.98;88469;1271;83641;-76
2022/01/28 04:13:05;;;;;;;4.20;1.20;;;;;;;3.27;87.78;99029.53;88462;1271;92145;-66
2022/01/28 04:15:34;;;;;;;2.80;1.10;;;;;;;3.30;87.82;99030.27;88383;1271;78480;-65
2022/01/28 04:17:43;;;;;;;3.90;1.20;;;;;;;3.32;87.84;99033.04;88396;1271;83349;-65
2022/01/28 04:19:55;;;;;;;4.40;1.20;;;;;;;3.35;87.90;99026.93;88425;1271;99562;-64
2022/01/28 04:22:05;;;;;;;7.90;1.60;;;;;;;3.39;87.84;99027.26;88459;1271;89246;-72
2022/01/28 04:24:14;;;;;;;3.90;1.20;;;;;;;3.41;87.86;99032.29;88428;1271;95244;-73
2022/01/28 04:26:23;;;;;;;3.00;1.30;;;;;;;3.40;87.93;99034.58;88369;1271;77897;-75
2022/01/28 04:28:32;;;;;;;4.40;1.20;;;;;;;3.42;87.86;99037.20;88488;1271;81603;-73
2022/01/28 04:30:41;;;;;;;3.20;1.00;;;;;;;3.36;87.90;99036.55;88388;1271;100411;-74
2022/01/28 04:32:51;;;;;;;3.10;1.00;;;;;;;3.30;87.64;99039.86;88397;1271;87356;-74
2022/01/28 04:35:01;;;;;;;3.40;1.10;;;;;;;3.22;87.81;99041.16;88442;1271;94856;-76
2022/01/28 04:37:19;;;;;;;3.80;1.10;;;;;;;3.18;87.95;99037.52;88348;1271;79688;-66
2022/01/28 04:39:35;;;;;;;4.60;1.10;;;;;;;3.18;88.07;99044.67;88360;1271;82496;-66
2022/01/28 04:41:55;;;;;;;4.10;1.20;;;;;;;3.19;87.88;99052.14;88348;1271;98078;-75
2022/01/28 04:44:12;;;;;;;3.70;1.40;;;;;;;3.20;88.15;99051.52;88380;1271;88834;-73
2022/01/28 04:46:30;;;;;;;2.50;0.90;;;;;;;3.20;88.21;99058.83;88411;1271;93317;-74
2022/01/28 04:48:49;;;;;;;1.50;0.80;;;;;;;3.15;88.49;99054.25;88374;1270;79252;-71
2022/01/28 04:51:14;;;;;;;4.90;1.30;;;;;;;3.13;88.27;99055.77;88323;1271;80075;-64
2022/01/28 04:53:39;;;;;;;3.50;0.90;;;;;;;3.13;88.35;99045.38;88247;1274;100728;-66
2022/01/28 04:56:04;;;;;;;3.30;0.90;;;;;;;3.15;88.38;99053.85;88420;1270;87556;-75
2022/01/28 04:58:32;;;;;;;2.70;0.90;;;;;;;3.17;88.37;99055.04;88369;1271;94930;-76
2022/01/28 05:00:56;;;;;;;2.80;0.70;;;;;;;3.15;88.51;99062.58;88355;1271;81239;-67
2022/01/28 05:03:25;;;;;;;3.00;1.00;;;;;;;3.10;88.66;99060.18;88345;1271;82521;-67
2022/01/28 05:08:33;;;;;;;2.30;0.90;;;;;;;3.17;88.89;99068.77;88259;1271;87987;-67
2022/01/28 05:11:11;;;;;;;3.50;1.00;;;;;;;3.18;88.85;99073.13;88347;1271;93481;-75
2022/01/28 05:16:44;;;;;;;4.40;1.10;;;;;;;3.18;88.94;99076.88;88342;1271;81607;-69
2022/01/28 05:26:26;;;;;;;1.80;0.80;;;;;;;3.11;89.44;99084.77;88333;1271;79037;-66
2022/01/28 05:28:39;;;;;;;2.10;1.00;;;;;;;3.10;89.57;99087.89;88368;1271;79915;-66
2022/01/28 05:30:47;;;;;;;;;;;;;;;3.13;89.47;99096.15;88356;1271;99615;-67
2022/01/28 05:33:00;;;;;;;3.30;0.90;;;;;;;3.15;89.54;99094.81;88402;1271;88941;-66
2022/01/28 05:35:11;;;;;;;1.80;0.90;;;;;;;3.19;89.54;99097.30;88349;1271;92522;-66
2022/01/28 05:37:20;;;;;;;1.30;0.80;;;;;;;3.19;89.60;99100.55;88337;1271;78693;-74
2022/01/28 05:39:30;;;;;;;1.40;0.80;;;;;;;3.23;89.45;99107.11;88414;1271;81582;-76
2022/01/28 05:41:39;;;;;;;2.20;0.90;;;;;;;3.24;89.47;99105.09;88428;1271;100234;-74
2022/01/28 05:43:49;;;;;;;3.50;1.00;;;;;;;3.26;89.54;99105.75;88362;1271;86835;-74
2022/01/28 05:45:58;;;;;;;2.10;1.00;;;;;;;3.27;89.50;99117.30;88421;1271;95444;-66
2022/01/28 05:48:08;;;;;;;2.20;0.90;;;;;;;3.24;89.64;99113.51;88345;1271;79678;-65
2022/01/28 05:50:17;;;;;;;1.00;0.80;;;;;;;3.29;89.59;99126.12;88364;1271;80743;-66
2022/01/28 05:52:31;;;;;;;2.20;1.00;;;;;;;3.30;89.52;99126.45;88409;1271;99642;-67
2022/01/28 05:54:40;;;;;;;3.30;1.00;;;;;;;3.31;89.68;99121.41;88400;1270;88728;-66
2022/01/28 05:56:53;;;;;;;2.50;1.10;;;;;;;3.34;89.58;99125.70;88334;1271;94807;-67
2022/01/28 05:59:05;;;;;;;2.50;1.00;;;;;;;3.32;89.51;99131.08;88332;1271;80818;-66
2022/01/28 06:01:14;;;;;;;2.30;0.80;;;;;;;3.34;89.64;99137.04;88439;1270;81343;-66
2022/01/28 06:03:26;;;;;;;3.40;1.10;;;;;;;3.36;89.59;99136.52;88420;1271;100183;-66
2022/01/28 06:05:38;;;;;;;1.60;0.90;;;;;;;3.38;89.80;99137.27;88452;1271;89180;-66
2022/01/28 06:07:47;;;;;;;2.10;0.80;;;;;;;3.40;89.66;99140.98;88331;1271;93347;-67
2022/01/28 06:10:00;;;;;;;1.80;0.90;;;;;;;3.40;89.62;99139.74;88417;1271;78878;-66
2022/01/28 06:12:14;;;;;;;3.60;1.10;;;;;;;3.39;89.65;99142.22;88347;1271;82047;-69
2022/01/28 06:14:26;;;;;;;2.70;0.90;;;;;;;3.43;89.62;99145.77;88314;1274;97712;-67
2022/01/28 06:16:35;;;;;;;2.50;1.40;;;;;;;3.38;89.62;99146.89;88459;1271;86425;-75
2022/01/28 06:18:48;;;;;;;2.90;1.20;;;;;;;3.39;89.60;99149.70;88434;1271;93106;-74
2022/01/28 06:20:57;;;;;;;3.10;1.50;;;;;;;3.35;89.82;99153.27;88373;1271;77995;-74
2022/01/28 06:23:06;;;;;;;4.00;1.50;;;;;;;3.36;89.57;99159.31;88361;1271;82397;-75
2022/01/28 06:25:17;;;;;;;2.30;1.20;;;;;;;3.42;89.67;99158.55;88353;1271;99169;-76
2022/01/28 06:27:26;;;;;;;4.10;1.80;;;;;;;3.46;89.61;99159.21;88350;1271;87133;-67
2022/01/28 06:29:35;;;;;;;3.40;1.20;;;;;;;3.47;89.81;99164.04;88336;1271;94496;-68
2022/01/28 06:31:44;;;;;;;3.90;1.30;;;;;;;3.49;89.65;99166.53;88344;1271;80652;-67
2022/01/28 06:33:53;;;;;;;2.50;1.00;;;;;;;3.50;89.65;99170.05;88369;1271;81777;-67
2022/01/28 06:36:03;;;;;;;2.30;1.10;;;;;;;3.50;89.56;99171.86;88357;1271;99332;-76
2022/01/28 06:38:13;;;;;;;3.50;1.00;;;;;;;3.50;89.60;99182.22;88403;1271;90597;-75
2022/01/28 06:40:22;;;;;;;2.50;1.10;;;;;;;3.50;89.54;99179.88;88402;1271;95976;-75
2022/01/28 06:42:32;;;;;;;2.30;1.10;;;;;;;3.51;89.47;99186.11;88349;1271;79501;-75
2022/01/28 06:44:40;;;;;;;2.10;0.80;;;;;;;3.51;89.68;99192.39;88451;1271;81487;-75
2022/01/28 06:46:49;;;;;;;3.80;2.70;;;;;;;3.51;89.61;99195.11;88416;1271;98021;-76
2022/01/28 06:49:02;;;;;;;2.20;1.00;;;;;;;3.45;89.68;99197.34;88411;1271;87727;-75
2022/01/28 06:51:14;;;;;;;3.50;1.60;;;;;;;3.44;89.77;99201.80;88359;1271;95188;-66
2022/01/28 06:53:23;;;;;;;2.30;1.20;;;;;;;3.48;89.84;99205.27;88427;1271;80703;-66
2022/01/28 06:55:36;;;;;;;2.60;0.80;;;;;;;3.42;89.74;99203.52;88342;1271;80432;-67
2022/01/28 06:57:45;;;;;;;2.00;1.10;;;;;;;3.39;89.96;99210.69;88408;1271;98678;-74
2022/01/28 06:59:54;;;;;;;2.60;1.50;;;;;;;3.41;89.90;99208.05;88350;1271;87435;-75
2022/01/28 07:02:15;;;;;;;3.70;1.20;;;;;;;3.44;89.74;99216.00;88364;1271;95265;-67
2022/01/28 07:04:29;;;;;;;4.10;1.80;;;;;;;3.46;89.90;99214.38;88406;1271;80771;-70
2022/01/28 07:06:38;;;;;;;2.40;1.40;;;;;;;3.43;90.07;99225.92;88321;1271;82421;-74
2022/01/28 07:08:52;;;;;;;3.60;1.30;;;;;;;3.36;89.93;99226.67;88415;1270;99950;-76
2022/01/28 07:11:01;;;;;;;2.30;1.30;;;;;;;3.32;90.18;99237.30;88391;1271;88403;-74
2022/01/28 07:13:13;;;;;;;3.30;1.60;;;;;;;3.31;90.02;99240.97;88366;1271;95882;-75
2022/01/28 07:15:24;;;;;;;5.60;3.30;;;;;;;3.34;90.07;99245.81;88336;1271;78989;-79
2022/01/28 07:17:34;;;;;;;4.80;2.10;;;;;;;3.38;90.02;99248.22;88418;1271;81947;-70
2022/01/28 07:19:45;;;;;;;3.90;1.80;;;;;;;3.41;90.10;99253.52;88371;1271;100285;-68
2022/01/28 07:21:54;;;;;;;4.00;2.00;;;;;;;3.45;90.14;99258.92;88349;1271;87077;-75
2022/01/28 07:24:03;;;;;;;3.40;1.60;;;;;;;3.45;89.87;99263.52;88335;1271;95138;-74
2022/01/28 07:26:13;;;;;;;4.80;2.60;;;;;;;3.42;90.08;99269.23;88433;1271;79121;-76
2022/01/28 07:28:26;;;;;;;6.70;3.40;;;;;;;3.41;90.17;99273.14;88354;1271;81669;-77
2022/01/28 07:30:38;;;;;;;4.20;1.90;;;;;;;3.48;89.92;99279.45;88449;1271;98476;-67
2022/01/28 07:32:51;;;;;;;3.50;2.00;;;;;;;3.46;89.86;99283.34;88413;1271;88843;-65
2022/01/28 07:35:05;;;;;;;4.00;1.50;;;;;;;3.50;89.97;99284.02;88340;1271;94195;-65
2022/01/28 07:37:17;;;;;;;2.70;2.00;;;;;;;3.52;89.90;99287.02;88345;1271;78182;-65
2022/01/28 07:39:27;;;;;;;3.60;1.60;;;;;;;3.54;89.76;99295.70;88412;1271;81787;-64
2022/01/28 07:41:40;;;;;;;2.90;1.60;;;;;;;3.48;90.05;99298.98;88451;1269;98136;-64
2022/01/28 07:43:52;;;;;;;2.80;1.60;;;;;;;3.46;89.77;99304.40;88373;1271;88261;-72
2022/01/28 07:46:05;;;;;;;2.10;1.60;;;;;;;3.47;89.88;99309.96;88344;1270;94551;-69
2022/01/28 07:48:17;;;;;;;3.50;1.60;;;;;;;3.56;89.88;99313.58;88281;1271;82149;-68
2022/01/28 07:50:31;;;;;;;215.60;118.80;;;;;;;3.57;89.71;99317.70;88415;1271;82849;-63
2022/01/28 07:52:41;;;;;;;6.50;3.50;;;;;;;3.51;89.97;99330.67;88400;1271;100467;-64
2022/01/28 07:54:50;;;;;;;2.90;1.70;;;;;;;3.51;90.02;99335.14;88421;1271;88776;-64
2022/01/28 07:57:01;;;;;;;3.20;1.30;;;;;;;3.49;89.69;99343.33;88354;1271;95806;-77
2022/01/28 07:59:13;;;;;;;3.10;1.30;;;;;;;3.50;89.94;99346.46;88320;1271;81869;-79
2022/01/28 08:01:23;;;;;;;2.40;1.20;;;;;;;3.53;89.81;99351.16;88405;1271;82139;-80
2022/01/28 08:03:35;;;;;;;2.80;1.40;;;;;;;3.55;89.72;99358.94;88375;1271;98654;-77
2022/01/28 08:05:47;;;;;;;2.60;1.20;;;;;;;3.55;89.81;99357.80;88374;1271;89038;-76
2022/01/28 08:07:58;;;;;;;2.30;1.10;;;;;;;3.56;89.79;99360.34;88271;1274;95367;-77
2022/01/28 08:10:09;;;;;;;2.70;1.40;;;;;;;3.61;89.51;99371.97;88324;1271;79544;-80
2022/01/28 08:12:21;;;;;;;2.20;1.20;;;;;;;3.58;89.66;99373.85;88399;1271;80941;-65
2022/01/28 08:14:32;;;;;;;2.10;0.90;;;;;;;3.61;89.64;99382.98;88333;1270;98520;-66
2022/01/28 08:16:44;;;;;;;2.90;1.40;;;;;;;3.62;89.66;99383.05;88334;1271;89076;-81
2022/01/28 08:18:57;;;;;;;4.00;1.60;;;;;;;3.60;89.47;99392.57;88397;1271;94787;-78
2022/01/28 08:21:07;;;;;;;2.90;1.50;;;;;;;3.63;89.44;99396.16;88298;1271;81520;-67
2022/01/28 08:23:19;;;;;;;2.00;1.10;;;;;;;3.62;89.52;99407.64;88329;1271;80679;-71
2022/01/28 08:25:31;;;;;;;1.70;1.00;;;;;;;3.64;89.50;99411.72;88319;1271;98971;-71
2022/01/28 08:27:42;;;;;;;2.00;1.10;;;;;;;3.62;89.16;99420.80;88375;1271;92187;-74
2022/01/28 08:29:51;;;;;;;2.20;0.80;;;;;;;3.62;89.13;99427.63;88428;1271;94281;-74
2022/01/28 08:32:03;;;;;;;1.60;0.80;;;;;;;3.59;89.08;99429.16;88460;1269;78069;-73
2022/01/28 08:34:12;;;;;;;2.50;1.10;;;;;;;3.58;89.25;99432.33;88306;1271;82593;-73
2022/01/28 08:36:25;;;;;;;1.20;0.80;;;;;;;3.57;89.10;99441.61;88436;1271;97042;-74
2022/01/28 08:38:39;;;;;;;3.00;1.00;;;;;;;3.56;89.25;99451.17;88331;1271;88121;-85
2022/01/28 08:40:49;;;;;;;;;;;;;;;3.58;89.13;99453.85;88513;1271;94608;-80
2022/01/28 08:43:04;;;;;;;1.60;0.70;;;;;;;3.56;88.95;99463.23;88396;1271;81068;-74
2022/01/28 08:45:18;;;;;;;1.40;0.90;;;;;;;3.59;89.05;99467.44;88453;1271;80141;-78
2022/01/28 08:47:31;;;;;;;1.80;0.70;;;;;;;3.65;88.89;99471.75;88319;1274;100774;-66
2022/01/28 08:49:40;;;;;;;1.60;0.80;;;;;;;3.66;88.93;99484.96;88354;1271;86561;-67
2022/01/28 08:51:50;;;;;;;1.70;1.00;;;;;;;3.64;88.97;99486.81;88436;1271;94207;-66
2022/01/28 08:53:59;;;;;;;1.30;0.80;;;;;;;3.64;88.85;99493.44;88402;1271;78791;-66
2022/01/28 08:56:10;;;;;;;1.50;0.70;;;;;;;3.61;88.72;99499.48;88283;1271;80073;-76
2022/01/28 08:58:19;;;;;;;2.50;1.10;;;;;;;3.62;88.82;99507.83;88354;1271;99681;-76
2022/01/28 09:00:31;;;;;;;2.60;1.10;;;;;;;3.65;88.82;99506.52;88422;1271;88596;-74
2022/01/28 09:02:43;;;;;;;1.50;0.70;;;;;;;3.62;88.64;99518.73;88340;1271;95362;-74
2022/01/28 09:04:52;;;;;;;2.90;1.30;;;;;;;3.56;88.88;99526.88;88423;1271;80709;-75
2022/01/28 09:07:05;;;;;;;1.80;0.80;;;;;;;3.59;88.79;99529.69;88350;1271;82481;-73
2022/01/28 09:09:19;;;;;;;1.60;0.90;;;;;;;3.61;88.91;99540.20;88367;1271;98915;-75
2022/01/28 09:11:52;;;;;;;2.00;0.90;;;;;;;3.69;88.69;99540.55;88425;1271;89394;-74
2022/01/28 09:14:04;;;;;;;1.60;0.90;;;;;;;3.70;88.56;99556.98;88384;1271;94105;-75
2022/01/28 09:16:14;;;;;;;2.30;1.00;;;;;;;3.68;88.31;99560.77;88422;1271;80263;-66
2022/01/28 09:18:26;;;;;;;1.50;0.90;;;;;;;3.72;88.42;99566.08;88452;1271;82226;-66
2022/01/28 09:20:41;;;;;;;1.70;1.00;;;;;;;3.71;88.33;99572.58;88364;1271;99549;-66
2022/01/28 09:22:50;;;;;;;2.10;1.20;;;;;;;3.70;88.26;99577.59;88374;1271;88036;-65
2022/01/28 09:25:03;;;;;;;1.90;1.20;;;;;;;3.69;88.43;99588.95;88340;1271;94123;-66
2022/01/28 09:27:15;;;;;;;2.20;1.20;;;;;;;3.67;88.18;99597.63;88372;1271;80364;-66
2022/01/28 09:29:27;;;;;;;2.30;1.30;;;;;;;3.64;88.28;99601.86;88408;1271;81467;-68
2022/01/28 09:31:37;;;;;;;2.50;1.30;;;;;;;3.62;88.39;99605.20;88300;1271;98732;-75
2022/01/28 09:33:49;;;;;;;2.20;1.10;;;;;;;3.57;88.28;99611.44;88384;1271;88145;-73
2022/01/28 09:35:58;;;;;;;2.10;1.60;;;;;;;3.59;88.39;99614.51;88444;1271;92597;-76
2022/01/28 09:38:12;;;;;;;1.90;1.20;;;;;;;3.62;88.35;99620.23;88352;1271;80441;-75
2022/01/28 09:40:27;;;;;;;2.90;1.30;;;;;;;3.59;88.13;99625.32;88488;1271;80639;-73
2022/01/28 09:42:42;;;;;;;2.80;1.00;;;;;;;3.58;88.14;99629.89;88391;1271;98884;-74
2022/01/28 09:44:56;;;;;;;1.50;0.90;;;;;;;3.61;88.21;99638.11;88355;1271;87385;-74
2022/01/28 09:47:10;;;;;;;2.00;1.00;;;;;;;3.60;88.08;99642.67;88363;1271;95694;-65
2022/01/28 09:49:23;;;;;;;2.50;1.00;;;;;;;3.59;88.22;99654.53;88380;1271;78854;-66
2022/01/28 09:51:36;;;;;;;2.10;1.40;;;;;;;3.62;88.21;99653.63;88417;1270;80731;-74
2022/01/28 09:53:46;;;;;;;2.30;1.40;;;;;;;3.67;88.24;99658.25;88372;1271;98563;-65
2022/01/28 09:55:58;;;;;;;1.60;1.00;;;;;;;3.67;88.04;99665.20;88401;1271;86669;-72
2022/01/28 09:58:11;;;;;;;1.90;1.00;;;;;;;3.68;88.02;99670.96;88355;1270;92948;-74
2022/01/28 10:00:25;;;;;;;2.20;0.90;;;;;;;3.74;88.02;99672.35;88446;1271;80852;-75
2022/01/28 10:02:58;;;;;;;2.60;1.20;;;;;;;3.77;87.98;99677.00;88451;1271;82764;-69
2022/01/28 10:05:19;;;;;;;4.00;1.60;;;;;;;3.77;87.42;99681.71;88440;1271;100001;-68
2022/01/28 10:07:29;;;;;;;4.40;2.10;;;;;;;3.72;87.77;99684.67;88345;1271;86996;-68
2022/01/28 10:09:56;;;;;;;4.70;2.40;;;;;;;3.67;87.72;99686.92;88376;1271;93626;-67
2022/01/28 10:12:25;;;;;;;3.10;1.50;;;;;;;3.69;87.85;99698.14;88369;1271;79538;-68
2022/01/28 10:14:59;;;;;;;3.20;1.20;;;;;;;3.73;87.84;99692.92;88390;1270;81708;-67
2022/01/28 10:17:08;;;;;;;2.30;1.00;;;;;;;3.70;87.38;99700.71;88395;1271;97945;-74
2022/01/28 10:19:17;;;;;;;2.70;1.20;;;;;;;3.70;87.52;99709.40;88433;1271;86878;-74
2022/01/28 10:21:38;;;;;;;2.20;1.00;;;;;;;3.70;87.31;99715.28;88434;1271;94743;-73
2022/01/28 10:24:00;;;;;;;2.30;1.00;;;;;;;3.63;87.10;99714.45;88332;1271;79412;-74
2022/01/28 10:26:12;;;;;;;3.70;1.50;;;;;;;3.64;87.27;99723.21;88389;1271;80401;-73
2022/01/28 10:28:21;;;;;;;3.80;1.60;;;;;;;3.63;87.19;99728.14;88383;1271;99716;-72
2022/01/28 10:30:44;;;;;;;5.50;2.10;;;;;;;3.63;87.24;99732.07;88479;1271;86740;-73
2022/01/28 10:33:16;;;;;;;4.20;2.30;;;;;;;3.66;87.10;99733.53;88438;1271;94511;-68
2022/01/28 10:35:36;;;;;;;2.60;1.40;;;;;;;3.70;86.83;99748.42;88282;1274;79330;-68
2022/01/28 10:37:59;;;;;;;2.70;1.30;;;;;;;3.70;86.89;99752.20;88305;1271;82197;-75
2022/01/28 10:40:14;;;;;;;2.50;1.40;;;;;;;3.68;86.88;99756.80;88398;1271;100103;-74
2022/01/28 10:42:38;;;;;;;3.40;1.70;;;;;;;3.68;86.72;99762.34;88394;1271;88668;-79
2022/01/28 10:45:10;;;;;;;3.80;1.40;;;;;;;3.81;86.67;99757.20;88367;1271;95339;-75
2022/01/28 10:47:36;;;;;;;1.60;0.90;;;;;;;3.90;86.43;99769.91;88433;1271;78893;-75
2022/01/28 10:49:46;;;;;;;3.00;1.80;;;;;;;3.95;86.43;99769.61;88485;1270;81782;-71
2022/01/28 10:52:03;;;;;;;3.50;1.50;;;;;;;3.96;86.24;99781.58;88261;1274;98389;-71
2022/01/28 10:54:19;;;;;;;2.60;1.10;;;;;;;3.99;86.40;99787.67;88370;1271;86310;-72
2022/01/28 10:56:46;;;;;;;2.10;1.30;;;;;;;3.98;86.10;99791.67;88410;1271;92912;-73
2022/01/28 10:58:58;;;;;;;1.90;1.10;;;;;;;3.97;85.90;99801.13;88362;1271;76802;-72
2022/01/28 11:01:13;;;;;;;2.40;1.40;;;;;;;3.90;85.37;99799.66;88514;1271;81829;-70
2022/01/28 11:03:27;;;;;;;1.80;1.10;;;;;;;3.82;85.55;99803.41;88379;1271;97928;-73
2022/01/28 11:05:39;;;;;;;3.70;1.20;;;;;;;3.83;85.38;99809.52;88295;1274;88553;-72
2022/01/28 11:07:49;;;;;;;3.00;1.40;;;;;;;3.77;85.43;99810.90;88363;1271;93743;-74
2022/01/28 11:09:58;;;;;;;1.90;1.10;;;;;;;3.76;85.50;99818.16;88263;1274;81362;-75
2022/01/28 11:12:10;;;;;;;1.60;1.10;;;;;;;3.69;85.38;99821.84;88459;1271;82878;-68
2022/01/28 11:14:22;;;;;;;3.40;1.50;;;;;;;3.66;85.43;99827.40;88392;1271;99487;-68
2022/01/28 11:16:31;;;;;;;1.60;1.10;;;;;;;3.67;85.41;99828.84;87444;1271;1285299;-69
2022/01/28 11:18:41;;;;;;;2.50;1.10;;;;;;;3.69;85.38;99839.13;88366;1271;93372;-76